Data for 06/27/2014

Time Sea-Level Adjusted Pressure Absolute Pressure Temperature Relative Humidity Dew Point   
(mb) (inHg) (mb) (inHg) (C) (F) (%) (C) (F)
00:05 1012 29.88 841 24.83 12.8 55 81 9.7 49.4
00:10 1012 29.88 841 24.83 12.8 55 82 9.8 49.6
00:15 1012 29.88 841 24.83 12.8 55 82 9.7 49.5
00:20 1012 29.88 841 24.83 12.7 54.9 83 9.9 49.8
00:25 1012 29.88 841 24.83 12.7 54.8 83 9.9 49.8
00:30 1012 29.88 841 24.83 12.4 54.4 85 10.1 50.1
00:35 1012 29.88 841 24.83 12 53.7 86 9.8 49.7
00:40 1012 29.88 841 24.83 12 53.5 87 9.8 49.7
00:45 1012 29.88 842 24.86 12 53.5 87 9.8 49.7
00:50 1012 29.88 842 24.86 12 53.6 86 9.8 49.6
00:55 1012 29.88 842 24.86 12.1 53.7 86 9.8 49.6
01:00 1012 29.88 842 24.86 12.2 53.9 85 9.8 49.6
01:05 1012 29.88 842 24.86 12.1 53.7 86 9.8 49.6
01:10 1012 29.88 841 24.83 12.1 53.7 85 9.6 49.2
01:15 1012 29.88 841 24.83 12.2 53.9 84 9.5 49.1
01:20 1012 29.88 842 24.86 12.2 54 83 9.5 49.1
01:25 1012 29.88 842 24.86 12.3 54.1 84 9.6 49.3
01:30 1012 29.88 842 24.86 12.3 54.1 84 9.6 49.2
01:35 1012 29.88 842 24.86 12.2 53.9 84 9.6 49.3
01:40 1012 29.88 842 24.86 12.1 53.8 83 9.2 48.6
01:45 1012 29.88 842 24.86 12.2 53.9 81 9 48.2
01:50 1012 29.88 842 24.86 12.1 53.9 82 9.1 48.4
01:55 1012 29.88 842 24.86 12.1 53.8 82 9.2 48.6
02:00 1012 29.88 842 24.86 12 53.6 84 9.4 48.8
02:05 1012 29.88 842 24.86 11.9 53.5 82 9 48.3
02:10 1013 29.91 842 24.86 12 53.6 82 9.1 48.4
02:15 1013 29.91 842 24.86 12.1 53.8 82 9.2 48.6
02:20 1013 29.91 842 24.86 12.3 54.1 82 9.2 48.6
02:25 1013 29.91 842 24.86 12.3 54.2 81 9.2 48.6
02:30 1013 29.91 842 24.86 12.4 54.3 81 9.3 48.7
02:35 1013 29.91 842 24.86 12.5 54.4 81 9.2 48.6
02:40 1013 29.91 842 24.86 12.5 54.5 80 9.2 48.5
02:45 1013 29.91 842 24.86 12.6 54.7 80 9.3 48.8
02:50 1013 29.91 842 24.86 12.5 54.5 81 9.3 48.7
02:55 1013 29.91 842 24.86 12.4 54.4 80 9.2 48.5
03:00 1013 29.91 842 24.86 12.5 54.4 80 9.1 48.5
03:05 1013 29.91 842 24.86 12.5 54.5 80 9.2 48.5
03:10 1013 29.91 842 24.86 12.5 54.5 80 9.2 48.6
03:15 1013 29.91 842 24.86 12.5 54.6 80 9.3 48.7
03:20 1013 29.91 842 24.86 12.5 54.5 81 9.3 48.8
03:25 1013 29.91 842 24.86 12.5 54.4 81 9.3 48.7
03:30 1013 29.91 842 24.86 12.4 54.3 81 9.2 48.6
03:35 1013 29.91 842 24.86 12.3 54.1 82 9.3 48.7
03:40 1013 29.91 842 24.86 12.2 53.9 82 9.2 48.5
03:45 1013 29.91 842 24.86 12.1 53.7 82 9.2 48.5
03:50 1013 29.91 842 24.86 12 53.6 82 9.1 48.4
03:55 1013 29.91 842 24.86 12 53.5 84 9.3 48.7
04:00 1013 29.91 842 24.86 12 53.6 83 9.2 48.5
04:05 1013 29.91 842 24.86 11.9 53.5 84 9.4 49
04:10 1013 29.91 842 24.86 11.8 53.2 85 9.3 48.8
04:15 1013 29.91 842 24.86 11.7 53.1 86 9.5 49.1
04:20 1013 29.91 842 24.86 11.7 53.1 87 9.6 49.3
04:25 1013 29.91 842 24.86 11.7 53 87 9.6 49.3
04:30 1013 29.91 842 24.86 11.6 52.9 88 9.8 49.6
04:35 1013 29.91 842 24.86 11.5 52.6 89 9.7 49.5
04:40 1013 29.91 842 24.86 11.4 52.5 89 9.6 49.4
04:45 1013 29.91 842 24.86 11.4 52.5 90 9.7 49.5
04:50 1013 29.91 842 24.86 11.4 52.6 90 9.9 49.8
04:55 1013 29.91 842 24.86 11.5 52.6 90 9.9 49.8
05:00 1013 29.91 842 24.86 11.5 52.6 90 9.9 49.8
05:05 1013 29.91 842 24.86 11.4 52.4 90 9.8 49.7
05:10 1013 29.91 842 24.86 11.3 52.4 90 9.8 49.6
05:15 1013 29.91 842 24.86 11.3 52.3 90 9.8 49.6
05:20 1013 29.91 842 24.86 11.3 52.3 91 9.8 49.7
05:25 1013 29.91 842 24.86 11.2 52.2 91 9.9 49.7
05:30 1013 29.91 842 24.86 11.1 52 91 9.7 49.5
05:35 1013 29.91 842 24.86 11.1 51.9 91 9.7 49.5
05:40 1013 29.91 842 24.86 11.1 52 91 9.8 49.6
05:45 1013 29.91 842 24.86 11.2 52.1 92 9.8 49.7
05:50 1013 29.91 842 24.86 11.1 52 92 9.8 49.6
05:55 1013 29.91 842 24.86 11 51.7 92 9.7 49.5
06:00 1013 29.91 842 24.86 11 51.7 92 9.7 49.5
06:05 1013 29.91 842 24.86 11 51.9 92 9.8 49.6
06:10 1013 29.91 842 24.86 11.3 52.4 90 9.7 49.5
06:15 1013 29.91 842 24.86 11.8 53.3 87 9.7 49.5
06:20 1013 29.91 842 24.86 12.2 53.9 86 9.8 49.7
06:25 1013 29.91 842 24.86 12.4 54.2 86 10.1 50.1
06:30 1013 29.91 842 24.86 12.3 54.1 87 10.1 50.2
06:35 1013 29.91 842 24.86 12.1 53.7 85 9.7 49.5
06:40 1013 29.91 842 24.86 12 53.7 83 9.3 48.7
06:45 1013 29.91 842 24.86 12.2 53.9 85 9.7 49.5
06:50 1013 29.91 842 24.86 12.6 54.7 81 9.5 49.2
06:55 1013 29.91 842 24.86 13.2 55.7 79 9.7 49.4
07:00 1013 29.91 842 24.86 13.4 56.1 77 9.5 49.1
07:05 1013 29.91 842 24.86 13.4 56 80 10 49.9
07:10 1013 29.91 842 24.86 13.7 56.6 75 9.5 49
07:15 1013 29.91 842 24.86 13.7 56.6 74 9.2 48.6
07:20 1013 29.91 842 24.86 13.9 57 72 9 48.2
07:25 1013 29.91 842 24.86 14.3 57.7 71 9.1 48.4
07:30 1013 29.91 842 24.86 14.2 57.6 69 8.8 47.8
07:35 1013 29.91 842 24.86 14.1 57.3 69 8.5 47.4
07:40 1013 29.91 842 24.86 14.3 57.8 68 8.6 47.4
07:45 1013 29.91 842 24.86 14.9 58.9 66 8.6 47.5
07:50 1013 29.91 842 24.86 15.4 59.7 63 8.4 47.1
07:55 1013 29.91 842 24.86 16 60.7 64 9.1 48.5
08:00 1013 29.91 842 24.86 16.5 61.6 62 9.3 48.7
08:05 1013 29.91 842 24.86 16.1 60.9 63 9.1 48.4
08:10 1013 29.91 842 24.86 15.3 59.5 70 9.9 49.9
08:15 1013 29.91 842 24.86 15.4 59.8 68 9.7 49.5
08:20 1013 29.91 842 24.86 16 60.8 67 10 50.1
08:25 1013 29.91 843 24.89 15.8 60.4 67 9.8 49.6
08:30 1013 29.91 842 24.86 15.6 60 66 9.4 48.9
08:35 1013 29.91 842 24.86 16.3 61.3 64 9.5 49.1
08:40 1013 29.91 842 24.86 16.2 61.2 64 9.4 49
08:45 1013 29.91 842 24.86 16.9 62.4 61 9.5 49.1
08:50 1013 29.91 842 24.86 16.7 62.1 65 10.2 50.4
08:55 1013 29.91 842 24.86 15.9 60.6 64 9.1 48.3
09:00 1013 29.91 842 24.86 17 62.5 59 9 48.2
09:05 1013 29.91 842 24.86 17.6 63.7 57 9.2 48.5
09:10 1013 29.91 842 24.86 17.5 63.5 57 8.8 47.9
09:15 1013 29.91 842 24.86 18 64.4 56 9.3 48.7
09:20 1013 29.91 842 24.86 17.7 63.8 58 9.3 48.8
09:25 1013 29.91 842 24.86 17.7 63.8 55 8.7 47.6
09:30 1013 29.91 842 24.86 17.9 64.2 55 8.7 47.7
09:35 1013 29.91 842 24.86 18 64.3 57 9.5 49.2
09:40 1013 29.91 842 24.86 17.5 63.4 56 8.6 47.4
09:45 1013 29.91 842 24.86 17.3 63.1 57 8.7 47.6
09:50 1013 29.91 842 24.86 17.5 63.5 55 8.4 47.2
09:55 1013 29.91 842 24.86 18.3 64.9 52 8.4 47.1
10:00 1013 29.91 842 24.86 18.8 65.8 50 8.3 46.9
10:05 1013 29.91 842 24.86 18.7 65.7 51 8.6 47.5
10:10 1013 29.91 842 24.86 18.2 64.8 53 8.5 47.3
10:15 1013 29.91 842 24.86 18.7 65.7 52 8.8 47.8
10:20 1012 29.88 842 24.86 18.5 65.4 53 8.9 48
10:25 1012 29.88 842 24.86 18.7 65.7 48 7.6 45.7
10:30 1012 29.88 842 24.86 19.6 67.2 46 7.9 46.2
10:35 1012 29.88 842 24.86 20.2 68.4 46 8.4 47.1
10:40 1012 29.88 842 24.86 20.3 68.6 46 8.6 47.5
10:45 1012 29.88 842 24.86 19.7 67.5 47 8.1 46.6
10:50 1012 29.88 842 24.86 19.8 67.6 44 7.2 45
10:55 1012 29.88 842 24.86 19.8 67.7 46 8.1 46.6
11:00 1012 29.88 841 24.83 19.1 66.4 46 7.3 45.2
11:05 1012 29.88 842 24.86 18.5 65.2 48 7.2 45
11:10 1012 29.88 841 24.83 19.3 66.7 46 7.5 45.5
11:15 1012 29.88 841 24.83 19.9 67.9 44 7.5 45.4
11:20 1012 29.88 841 24.83 19.1 66.3 46 7.2 44.9
11:25 1012 29.88 841 24.83 18.6 65.5 46 7 44.6
11:30 1012 29.88 841 24.83 18.6 65.4 48 7.5 45.4
11:35 1012 29.88 841 24.83 17.9 64.2 52 7.9 46.2
11:40 1012 29.88 842 24.86 17.9 64.2 52 8.1 46.6
11:45 1013 29.91 842 24.86 17.7 63.9 61 10.2 50.3
11:50 1013 29.91 842 24.86 16.1 60.9 69 10.5 50.9
11:55 1013 29.91 842 24.86 14.3 57.7 74 9.8 49.6
12:00 1013 29.91 842 24.86 14.1 57.5 72 9.1 48.4
12:05 1012 29.88 842 24.86 14.2 57.5 73 9.4 48.9
12:10 1012 29.88 842 24.86 14.4 57.8 72 9.5 49.1
12:15 1012 29.88 842 24.86 14.9 58.8 71 9.7 49.5
12:20 1012 29.88 842 24.86 15.6 60.2 66 9.3 48.8
12:25 1012 29.88 841 24.83 16.1 60.9 62 8.9 48
12:30 1012 29.88 841 24.83 16.2 61.2 56 7.4 45.3
12:35 1012 29.88 841 24.83 15.9 60.7 56 7.2 45
12:40 1012 29.88 841 24.83 16.3 61.3 57 7.7 45.9
12:45 1012 29.88 841 24.83 16.6 61.9 56 7.9 46.2
12:50 1012 29.88 841 24.83 17.3 63.1 54 8 46.4
12:55 1012 29.88 841 24.83 17.1 62.7 53 7.6 45.7
13:00 1012 29.88 841 24.83 17.2 63 52 7.3 45.2
13:05 1012 29.88 841 24.83 17.4 63.3 50 6.8 44.3
13:10 1012 29.88 841 24.83 17.8 64.1 50 7.3 45.1
13:15 1012 29.88 841 24.83 17.5 63.5 49 6.7 44.1
13:20 1012 29.88 841 24.83 17.9 64.3 47 6.5 43.6
13:25 1012 29.88 841 24.83 18.6 65.4 45 6.6 44
13:30 1012 29.88 841 24.83 19.4 66.9 43 6.6 43.8
13:35 1012 29.88 841 24.83 19.6 67.2 43 6.9 44.3
13:40 1012 29.88 841 24.83 20.4 68.8 41 6.8 44.2
13:45 1012 29.88 841 24.83 20.6 69 48 9.4 48.9
13:50 1012 29.88 841 24.83 18 64.4 54 8.7 47.7
13:55 1012 29.88 841 24.83 17.1 62.8 55 8.1 46.7
14:00 1012 29.88 841 24.83 17.8 64.1 49 7.2 45
14:05 1012 29.88 841 24.83 18.7 65.6 50 8.1 46.6
14:10 1012 29.88 841 24.83 18.3 64.9 46 6.5 43.7
14:15 1012 29.88 841 24.83 18.6 65.6 45 6.5 43.7
14:20 1012 29.88 841 24.83 18.7 65.6 45 6.8 44.2
14:25 1012 29.88 841 24.83 18.9 66.1 42 5.9 42.6
14:30 1012 29.88 841 24.83 18.6 65.5 44 6.4 43.5
14:35 1012 29.88 841 24.83 18.6 65.6 40 4.9 40.9
14:40 1012 29.88 841 24.83 19 66.2 40 5.2 41.4
14:45 1012 29.88 841 24.83 20 68.1 36 4.8 40.6
14:50 1012 29.88 841 24.83 20 68 39 5.6 42.1
14:55 1012 29.88 841 24.83 19.8 67.6 39 5.5 41.9
15:00 1012 29.88 841 24.83 19.4 66.9 40 5.7 42.3
15:05 1012 29.88 841 24.83 19.4 67 40 5.6 42.1
15:10 1012 29.88 841 24.83 19.5 67.1 40 5.9 42.6
15:15 1012 29.88 841 24.83 19.4 67 43 6.6 43.9
15:20 1012 29.88 841 24.83 19.5 67.1 41 6.1 43
15:25 1012 29.88 841 24.83 19.7 67.5 40 5.8 42.5
15:30 1012 29.88 841 24.83 19.9 67.8 39 5.8 42.5
15:35 1012 29.88 841 24.83 19.3 66.7 43 6.5 43.8
15:40 1012 29.88 841 24.83 18.6 65.4 45 6.7 44
15:45 1012 29.88 841 24.83 18.2 64.7 52 8.2 46.7
15:50 1012 29.88 841 24.83 17.2 62.9 62 9.9 49.9
15:55 1012 29.88 841 24.83 16 60.8 59 7.9 46.3
16:00 1012 29.88 841 24.83 15.3 59.5 61 7.9 46.3
16:05 1012 29.88 841 24.83 15.3 59.5 57 6.9 44.5
16:10 1012 29.88 841 24.83 15.5 59.8 57 7.1 44.9
16:15 1012 29.88 841 24.83 15.2 59.3 62 8 46.3
16:20 1012 29.88 841 24.83 15.2 59.3 61 7.9 46.1
16:25 1012 29.88 841 24.83 15.4 59.6 60 7.7 45.8
16:30 1012 29.88 841 24.83 15.6 60.1 60 7.8 46.1
16:35 1012 29.88 841 24.83 15.8 60.4 57 7.3 45.1
16:40 1012 29.88 841 24.83 15.9 60.7 57 7.4 45.3
16:45 1012 29.88 841 24.83 16.3 61.3 54 7 44.6
16:50 1012 29.88 841 24.83 16.3 61.3 56 7.5 45.4
16:55 1012 29.88 841 24.83 16.8 62.2 55 7.8 46.1
17:00 1012 29.88 841 24.83 16.7 62.1 55 7.8 46
17:05 1012 29.88 841 24.83 16.5 61.6 54 7.2 44.9
17:10 1012 29.88 841 24.83 16.4 61.6 55 7.3 45.2
17:15 1012 29.88 841 24.83 16.5 61.8 55 7.4 45.4
17:20 1012 29.88 841 24.83 16.4 61.6 56 7.7 45.9
17:25 1012 29.88 841 24.83 16.5 61.7 56 7.8 46.1
17:30 1012 29.88 842 24.86 17 62.5 52 7 44.6
17:35 1012 29.88 842 24.86 17.3 63.1 50 6.9 44.4
17:40 1013 29.91 842 24.86 17.4 63.3 50 7.1 44.7
17:45 1013 29.91 842 24.86 16.7 62 61 9.3 48.8
17:50 1013 29.91 842 24.86 15.5 59.9 65 9.1 48.4
17:55 1013 29.91 842 24.86 15 58.9 65 8.5 47.3
18:00 1013 29.91 842 24.86 14.9 58.8 65 8.4 47.2
18:05 1013 29.91 842 24.86 15.2 59.3 64 8.6 47.5
18:10 1013 29.91 842 24.86 15 59 64 8.4 47.1
18:15 1013 29.91 842 24.86 15 58.9 65 8.5 47.2
18:20 1013 29.91 842 24.86 15.1 59.1 63 8.1 46.6
18:25 1013 29.91 842 24.86 15.5 59.9 60 7.9 46.3
18:30 1013 29.91 842 24.86 15.8 60.4 61 8.4 47.2
18:35 1013 29.91 842 24.86 15.8 60.5 61 8.5 47.2
18:40 1013 29.91 842 24.86 15.8 60.4 64 9 48.2
18:45 1013 29.91 842 24.86 15.5 59.8 64 8.7 47.7
18:50 1013 29.91 843 24.89 15.3 59.5 65 8.8 47.9
18:55 1013 29.91 843 24.89 15.2 59.3 64 8.5 47.2
19:00 1014 29.94 843 24.89 14.9 58.9 65 8.6 47.4
19:05 1014 29.94 843 24.89 14.7 58.4 68 8.9 48
19:10 1014 29.94 843 24.89 14.6 58.3 69 8.9 48.1
19:15 1014 29.94 843 24.89 14.4 58 67 8.5 47.4
19:20 1014 29.94 843 24.89 14.4 58 65 7.9 46.3
19:25 1014 29.94 843 24.89 14.4 57.9 63 7.4 45.3
19:30 1014 29.94 843 24.89 14.3 57.7 65 7.8 46.1
19:35 1014 29.94 843 24.89 13.9 57.1 73 9.2 48.6
19:40 1014 29.94 843 24.89 13.3 56 79 9.8 49.6
19:45 1014 29.94 843 24.89 12.7 54.9 82 9.8 49.6
19:50 1014 29.94 844 24.92 12.2 54 84 9.6 49.3
19:55 1014 29.94 844 24.92 12 53.5 83 9.2 48.6
20:00 1014 29.94 844 24.92 11.9 53.4 85 9.4 48.9
20:05 1014 29.94 844 24.92 11.8 53.3 85 9.4 49
20:10 1014 29.94 844 24.92 11.7 53.1 87 9.7 49.5
20:15 1014 29.94 844 24.92 11.6 53 87 9.6 49.3
20:20 1015 29.97 844 24.92 11.7 53 88 9.7 49.5
20:25 1015 29.97 844 24.92 11.8 53.2 88 9.9 49.9
20:30 1015 29.97 844 24.92 11.7 53.1 86 9.6 49.2
20:35 1015 29.97 844 24.92 11.6 52.9 87 9.5 49
20:40 1015 29.97 844 24.92 11.5 52.7 86 9.2 48.6
20:45 1015 29.97 844 24.92 11.5 52.7 85 9.1 48.4
20:50 1015 29.97 844 24.92 11.4 52.6 86 9.1 48.4
20:55 1015 29.97 844 24.92 11.4 52.6 87 9.3 48.7
21:00 1015 29.97 844 24.92 11.4 52.6 86 9.2 48.5
21:05 1015 29.97 844 24.92 11.5 52.7 86 9.2 48.6
21:10 1015 29.97 844 24.92 11.5 52.8 87 9.4 49
21:15 1015 29.97 844 24.92 11.6 52.8 87 9.5 49.1
21:20 1015 29.97 844 24.92 11.5 52.7 88 9.6 49.2
21:25 1015 29.97 844 24.92 11.5 52.7 89 9.7 49.5
21:30 1015 29.97 844 24.92 11.4 52.6 89 9.6 49.3
21:35 1015 29.97 844 24.92 11.5 52.6 89 9.7 49.5
21:40 1015 29.97 844 24.92 11.5 52.7 89 9.8 49.6
21:45 1015 29.97 844 24.92 11.4 52.6 90 9.8 49.7
21:50 1015 29.97 844 24.92 11.4 52.5 90 9.7 49.5
21:55 1015 29.97 844 24.92 11.4 52.5 90 9.9 49.8
22:00 1015 29.97 844 24.92 11.4 52.4 90 9.8 49.6
22:05 1015 29.97 844 24.92 11.3 52.3 89 9.5 49
22:10 1015 29.97 844 24.92 11.3 52.3 89 9.6 49.3
22:15 1015 29.97 844 24.92 11.3 52.3 90 9.7 49.5
22:20 1014 29.94 844 24.92 11.2 52.2 90 9.6 49.3
22:25 1014 29.94 844 24.92 11.3 52.3 90 9.6 49.3
22:30 1015 29.97 844 24.92 11.2 52.2 90 9.6 49.3
22:35 1015 29.97 844 24.92 11.1 52 91 9.6 49.4
22:40 1014 29.94 844 24.92 11.1 52 91 9.7 49.4
22:45 1014 29.94 844 24.92 11 51.8 92 9.7 49.5
22:50 1014 29.94 844 24.92 10.9 51.6 92 9.6 49.3
22:55 1014 29.94 843 24.89 10.9 51.6 92 9.6 49.3
23:00 1014 29.94 844 24.92 10.9 51.6 91 9.5 49.2
23:05 1014 29.94 844 24.92 10.8 51.5 89 9.1 48.4
23:10 1014 29.94 843 24.89 10.8 51.4 86 8.6 47.5
23:15 1014 29.94 843 24.89 10.7 51.3 86 8.4 47.2
23:20 1014 29.94 843 24.89 10.6 51.1 87 8.6 47.4
23:25 1014 29.94 843 24.89 10.3 50.6 88 8.5 47.3
23:30 1014 29.94 843 24.89 10.2 50.3 88 8.3 46.9
23:35 1014 29.94 843 24.89 10.1 50.2 89 8.3 47
23:40 1014 29.94 843 24.89 10.1 50.3 89 8.4 47
23:45 1014 29.94 843 24.89 10 50 89 8.2 46.8
23:50 1014 29.94 843 24.89 9.9 49.9 88 8.1 46.6
23:55 1014 29.94 843 24.89 9.9 49.9 89 8.2 46.8
24:00 1014 29.94 843 24.89 10 49.9 89 8.3 46.9